createdAt,value
2023-02-23T00:01:22.190Z,-80
2023-02-23T00:04:29.828Z,-80
2023-02-23T00:07:36.914Z,-80
2023-02-23T00:10:44.633Z,-78
2023-02-23T00:13:54.284Z,-79
2023-02-23T00:17:01.477Z,-79
2023-02-23T00:20:12.835Z,-78
2023-02-23T00:23:19.409Z,-79
2023-02-23T00:26:31.094Z,-78
2023-02-23T00:29:40.694Z,-78
2023-02-23T00:32:47.220Z,-78
2023-02-23T00:35:55.631Z,-79
2023-02-23T00:39:06.512Z,-79
2023-02-23T00:42:13.779Z,-79
2023-02-23T00:45:22.238Z,-78
2023-02-23T00:48:28.891Z,-79
2023-02-23T00:51:34.798Z,-79
2023-02-23T00:54:41.416Z,-78
2023-02-23T00:57:47.343Z,-79
2023-02-23T01:00:57.203Z,-79
2023-02-23T01:04:04.818Z,-79
2023-02-23T01:07:13.117Z,-79
2023-02-23T01:10:22.651Z,-79
2023-02-23T01:13:29.923Z,-79
2023-02-23T01:16:39.195Z,-79
2023-02-23T01:19:45.764Z,-79
2023-02-23T01:22:54.272Z,-80
2023-02-23T01:26:01.730Z,-79
2023-02-23T01:29:11.304Z,-80
2023-02-23T01:32:20.555Z,-80
2023-02-23T01:35:27.245Z,-79
2023-02-23T01:38:33.760Z,-79
2023-02-23T01:41:42.616Z,-80
2023-02-23T01:45:27.233Z,-79
2023-02-23T01:48:43.582Z,-79
2023-02-23T01:51:58.873Z,-79
2023-02-23T01:55:06.322Z,-79
2023-02-23T01:58:21.909Z,-79
2023-02-23T02:01:29.755Z,-79
2023-02-23T02:04:46.865Z,-79
2023-02-23T02:07:59.252Z,-80
2023-02-23T02:11:25.975Z,-79
2023-02-23T02:14:35.088Z,-79
2023-02-23T02:18:03.393Z,-80
2023-02-23T02:22:12.564Z,-79
2023-02-23T02:25:43.984Z,-79
2023-02-23T02:29:43.146Z,-78
2023-02-23T02:33:46.916Z,-80
2023-02-23T02:37:36.172Z,-79
2023-02-23T02:40:56.065Z,-79
2023-02-23T02:44:18.192Z,-79
2023-02-23T02:47:36.704Z,-79
2023-02-23T02:50:56.405Z,-79
2023-02-23T02:54:17.167Z,-78
2023-02-23T02:57:29.997Z,-80
2023-02-23T03:00:55.184Z,-79
2023-02-23T03:04:18.491Z,-79
2023-02-23T03:07:46.925Z,-80
2023-02-23T03:11:18.031Z,-78
2023-02-23T03:14:59.517Z,-79
2023-02-23T03:18:52.144Z,-79
2023-02-23T03:22:23.255Z,-80
2023-02-23T03:25:58.502Z,-79
2023-02-23T03:29:32.128Z,-80
2023-02-23T03:33:03.584Z,-80
2023-02-23T03:36:34.651Z,-79
2023-02-23T03:40:07.541Z,-79
2023-02-23T03:43:34.867Z,-79
2023-02-23T03:47:02.055Z,-79
2023-02-23T03:50:30.779Z,-79
2023-02-23T03:54:00.064Z,-78
2023-02-23T03:57:28.601Z,-79
2023-02-23T04:00:57.678Z,-80
2023-02-23T04:04:23.355Z,-79
2023-02-23T04:07:42.137Z,-79
2023-02-23T04:11:13.902Z,-79
2023-02-23T04:14:30.099Z,-79
2023-02-23T04:17:37.823Z,-79
2023-02-23T04:20:47.999Z,-79
2023-02-23T04:23:54.890Z,-79
2023-02-23T04:27:01.724Z,-79
2023-02-23T04:30:11.685Z,-79
2023-02-23T04:33:18.675Z,-79
2023-02-23T04:36:28.003Z,-78
2023-02-23T04:39:34.059Z,-79
2023-02-23T04:42:43.062Z,-79
2023-02-23T04:45:50.877Z,-79
2023-02-23T04:48:57.417Z,-79
2023-02-23T04:52:06.269Z,-79
2023-02-23T04:55:21.641Z,-79
2023-02-23T04:58:27.893Z,-79
2023-02-23T05:01:34.502Z,-79
2023-02-23T05:04:40.496Z,-79
2023-02-23T05:07:50.041Z,-79
2023-02-23T05:10:55.810Z,-78
2023-02-23T05:14:02.430Z,-78
2023-02-23T05:17:08.827Z,-78
2023-02-23T05:20:17.898Z,-79
2023-02-23T05:23:26.369Z,-78
2023-02-23T05:26:33.003Z,-78
2023-02-23T05:29:39.123Z,-78
2023-02-23T05:32:45.779Z,-79
2023-02-23T05:35:51.937Z,-79
2023-02-23T05:39:01.220Z,-80
2023-02-23T05:42:07.324Z,-82
2023-02-23T05:45:14.791Z,-79
2023-02-23T05:48:20.559Z,-79
2023-02-23T05:51:27.263Z,-78
2023-02-23T05:54:35.725Z,-80
2023-02-23T05:57:43.990Z,-81
2023-02-23T06:00:49.782Z,-79
2023-02-23T06:03:56.923Z,-79
2023-02-23T06:07:02.872Z,-78
2023-02-23T06:10:14.591Z,-79
2023-02-23T06:13:21.478Z,-78
2023-02-23T06:16:28.269Z,-80
2023-02-23T06:19:34.308Z,-79
2023-02-23T06:22:42.499Z,-80
2023-02-23T06:25:51.168Z,-79
2023-02-23T06:28:58.261Z,-79
2023-02-23T06:32:04.180Z,-81
2023-02-23T06:35:12.042Z,-82
2023-02-23T06:38:18.093Z,-83
2023-02-23T06:41:28.977Z,-79
2023-02-23T06:44:35.641Z,-84
2023-02-23T06:47:42.918Z,-83
2023-02-23T06:50:48.675Z,-84
2023-02-23T06:53:55.793Z,-84
2023-02-23T06:57:04.653Z,-83
2023-02-23T07:00:15.278Z,-83
2023-02-23T07:03:22.131Z,-84
2023-02-23T07:06:28.860Z,-84
2023-02-23T07:09:34.804Z,-84
2023-02-23T07:12:43.971Z,-82
2023-02-23T07:15:49.845Z,-84
2023-02-23T07:18:56.833Z,-83
2023-02-23T07:22:03.127Z,-83
2023-02-23T07:25:11.688Z,-81
2023-02-23T07:28:21.288Z,-85
2023-02-23T07:31:28.620Z,-85
2023-02-23T07:34:34.465Z,-84
2023-02-23T07:37:42.367Z,-85
2023-02-23T07:40:48.217Z,-81
2023-02-23T07:43:57.552Z,-83
2023-02-23T07:47:03.640Z,-81
2023-02-23T07:50:12.856Z,-83
2023-02-23T07:53:19.040Z,-82
2023-02-23T07:56:26.117Z,-82
2023-02-23T07:59:37.465Z,-82
2023-02-23T08:02:44.897Z,-82
2023-02-23T08:05:51.036Z,-84
2023-02-23T08:08:57.599Z,-84
2023-02-23T08:12:04.006Z,-84
2023-02-23T08:15:14.598Z,-83
2023-02-23T08:18:20.647Z,-81
2023-02-23T08:21:29.423Z,-82
2023-02-23T08:24:35.760Z,-79
2023-02-23T08:27:42.579Z,-80
2023-02-23T08:30:51.040Z,-80
2023-02-23T08:33:57.932Z,-80
2023-02-23T08:37:03.852Z,-81
2023-02-23T08:40:15.723Z,-79
2023-02-23T08:43:21.491Z,-81
2023-02-23T08:46:31.676Z,-78
2023-02-23T08:49:37.527Z,-79
2023-02-23T08:52:45.363Z,-81
2023-02-23T08:56:00.823Z,-79
2023-02-23T08:59:08.028Z,-79
2023-02-23T09:02:18.325Z,-79
2023-02-23T09:05:24.950Z,-79
2023-02-23T09:08:30.904Z,-79
2023-02-23T09:11:37.604Z,-79
2023-02-23T09:14:43.332Z,-80
2023-02-23T09:17:54.756Z,-81
2023-02-23T09:21:00.817Z,-80
2023-02-23T09:24:08.272Z,-81
2023-02-23T09:27:15.126Z,-81
2023-02-23T09:30:24.718Z,-80
2023-02-23T09:33:33.062Z,-82
2023-02-23T09:36:40.280Z,-80
2023-02-23T09:39:46.507Z,-80
2023-02-23T09:43:06.482Z,-82
2023-02-23T09:46:31.143Z,-80
2023-02-23T09:49:48.006Z,-81
2023-02-23T09:53:03.360Z,-79
2023-02-23T09:56:21.569Z,-80
2023-02-23T09:59:29.511Z,-79
2023-02-23T10:02:58.390Z,-80
2023-02-23T10:06:14.350Z,-80
2023-02-23T10:09:45.924Z,-80
2023-02-23T10:13:08.282Z,-82
2023-02-23T10:16:27.822Z,-79
2023-02-23T10:19:50.808Z,-81
2023-02-23T10:23:12.141Z,-80
2023-02-23T10:26:27.052Z,-80
2023-02-23T10:29:42.754Z,-79
2023-02-23T10:32:59.272Z,-81
2023-02-23T10:36:22.258Z,-79
2023-02-23T10:39:32.899Z,-81
2023-02-23T10:42:39.541Z,-80
2023-02-23T10:45:51.540Z,-80
2023-02-23T10:49:00.703Z,-80
2023-02-23T10:52:07.608Z,-80
2023-02-23T10:55:28.824Z,-80
2023-02-23T10:58:43.882Z,-81
2023-02-23T11:02:01.333Z,-81
2023-02-23T11:05:10.329Z,-81
2023-02-23T11:08:32.205Z,-81
2023-02-23T11:11:40.720Z,-80
2023-02-23T11:14:48.308Z,-81
2023-02-23T11:18:01.309Z,-80
2023-02-23T11:21:15.645Z,-81
2023-02-23T11:24:31.055Z,-81
2023-02-23T11:27:40.358Z,-80
2023-02-23T11:30:46.477Z,-81
2023-02-23T11:33:57.511Z,-81
2023-02-23T11:37:08.688Z,-81
2023-02-23T11:40:28.116Z,-81
2023-02-23T11:43:36.822Z,-81
2023-02-23T11:46:46.811Z,-81
2023-02-23T11:49:55.345Z,-80
2023-02-23T11:53:09.737Z,-80
2023-02-23T11:56:25.865Z,-80
2023-02-23T11:59:41.466Z,-80
2023-02-23T12:02:56.661Z,-80
2023-02-23T12:06:03.237Z,-81
2023-02-23T12:09:25.677Z,-81
2023-02-23T12:12:43.033Z,-80
2023-02-23T12:16:00.333Z,-80
2023-02-23T12:19:25.882Z,-81
2023-02-23T12:22:41.777Z,-81
2023-02-23T12:25:57.764Z,-81
2023-02-23T12:29:20.586Z,-81
2023-02-23T12:32:43.791Z,-81
2023-02-23T12:36:01.016Z,-80
2023-02-23T12:39:24.594Z,-81
2023-02-23T12:42:48.324Z,-79
2023-02-23T12:46:02.653Z,-81
2023-02-23T12:49:25.704Z,-80
2023-02-23T12:52:40.222Z,-81
2023-02-23T12:56:07.672Z,-80
2023-02-23T12:59:59.823Z,-81
2023-02-23T13:03:45.010Z,-81
2023-02-23T13:07:09.458Z,-81
2023-02-23T13:10:32.666Z,-80
2023-02-23T13:13:51.981Z,-80
2023-02-23T13:17:11.708Z,-80
2023-02-23T13:20:33.725Z,-80
2023-02-23T13:23:57.873Z,-80
2023-02-23T13:27:19.508Z,-80
2023-02-23T13:30:25.439Z,-80
2023-02-23T13:33:43.646Z,-80
2023-02-23T13:36:52.390Z,-81
2023-02-23T13:40:22.117Z,-80
2023-02-23T13:43:37.633Z,-80
2023-02-23T13:46:57.657Z,-79
2023-02-23T13:50:19.350Z,-80
2023-02-23T13:53:41.454Z,-79
2023-02-23T13:56:57.071Z,-81
2023-02-23T14:00:05.084Z,-80
2023-02-23T14:03:34.240Z,-81
2023-02-23T14:06:43.231Z,-80
2023-02-23T14:10:01.677Z,-80
2023-02-23T14:13:31.767Z,-81
2023-02-23T14:16:37.756Z,-81
2023-02-23T14:19:46.857Z,-80
2023-02-23T14:23:33.356Z,-80
2023-02-23T14:26:48.416Z,-80
2023-02-23T14:30:25.611Z,-79
2023-02-23T14:34:03.599Z,-79
2023-02-23T14:37:25.283Z,-79
2023-02-23T14:40:38.005Z,-80
2023-02-23T14:43:48.641Z,-80
2023-02-23T14:47:07.259Z,-80
2023-02-23T14:50:25.803Z,-82
2023-02-23T14:53:32.434Z,-82
2023-02-23T14:56:48.338Z,-80
2023-02-23T15:00:05.998Z,-81
2023-02-23T15:03:22.595Z,-81
2023-02-23T15:06:29.382Z,-80
2023-02-23T15:09:44.021Z,-82
2023-02-23T15:12:52.138Z,-81
2023-02-23T15:16:01.880Z,-81
2023-02-23T15:19:11.431Z,-83
2023-02-23T15:22:30.003Z,-83
2023-02-23T15:25:40.689Z,-81
2023-02-23T15:28:49.100Z,-81
2023-02-23T15:31:58.630Z,-81
2023-02-23T15:35:12.078Z,-81
2023-02-23T15:38:42.355Z,-81
2023-02-23T15:41:52.832Z,-81
2023-02-23T15:45:05.056Z,-80
2023-02-23T15:48:21.095Z,-79
2023-02-23T15:51:40.610Z,-80
2023-02-23T15:55:00.507Z,-80
2023-02-23T15:58:21.717Z,-82
2023-02-23T16:01:30.700Z,-82
2023-02-23T16:04:44.503Z,-81
2023-02-23T16:08:07.205Z,-81
2023-02-23T16:11:19.965Z,-82
2023-02-23T16:14:30.632Z,-81
2023-02-23T16:17:48.533Z,-81
2023-02-23T16:20:58.879Z,-80
2023-02-23T16:24:22.358Z,-80
2023-02-23T16:27:32.751Z,-82
2023-02-23T16:30:45.924Z,-82
2023-02-23T16:33:58.844Z,-82
2023-02-23T16:37:18.481Z,-82
2023-02-23T16:40:27.616Z,-83
2023-02-23T16:43:37.214Z,-80
2023-02-23T16:47:01.665Z,-81
2023-02-23T16:50:21.220Z,-81
2023-02-23T16:53:27.500Z,-81
2023-02-23T16:56:37.554Z,-80
2023-02-23T16:59:43.746Z,-81
2023-02-23T17:02:50.572Z,-80
2023-02-23T17:05:57.580Z,-82
2023-02-23T17:09:04.586Z,-81
2023-02-23T17:12:18.507Z,-80
2023-02-23T17:15:29.339Z,-81
2023-02-23T17:18:43.116Z,-80
2023-02-23T17:21:50.133Z,-80
2023-02-23T17:24:55.942Z,-80
2023-02-23T17:28:05.826Z,-80
2023-02-23T17:31:12.084Z,-80
2023-02-23T17:34:18.812Z,-81
2023-02-23T17:37:25.180Z,-81
2023-02-23T17:40:36.512Z,-80
2023-02-23T17:43:45.219Z,-82
2023-02-23T17:46:51.945Z,-80
2023-02-23T17:49:57.855Z,-80
2023-02-23T17:53:04.387Z,-81
2023-02-23T17:56:11.943Z,-79
2023-02-23T17:59:21.142Z,-81
2023-02-23T18:02:27.910Z,-81
2023-02-23T18:05:34.829Z,-81
2023-02-23T18:08:43.986Z,-80
2023-02-23T18:11:50.575Z,-81
2023-02-23T18:15:01.798Z,-81
2023-02-23T18:18:08.509Z,-82
2023-02-23T18:21:19.298Z,-83
2023-02-23T18:24:27.467Z,-82
2023-02-23T18:27:33.534Z,-82
2023-02-23T18:30:43.744Z,-81
2023-02-23T18:33:53.112Z,-82
2023-02-23T18:37:03.760Z,-81
2023-02-23T18:40:21.625Z,-82
2023-02-23T18:43:28.496Z,-83
2023-02-23T18:46:37.779Z,-81
2023-02-23T18:49:44.371Z,-81
2023-02-23T18:52:53.216Z,-82
2023-02-23T18:56:08.941Z,-81
2023-02-23T18:59:15.554Z,-81
2023-02-23T19:02:25.443Z,-81
2023-02-23T19:05:31.584Z,-81
2023-02-23T19:08:38.361Z,-80
2023-02-23T19:11:46.509Z,-88
2023-02-23T19:14:54.388Z,-86
2023-02-23T19:18:02.860Z,-86
2023-02-23T19:21:09.939Z,-85
2023-02-23T19:24:16.174Z,-84
2023-02-23T19:27:23.660Z,-86
2023-02-23T19:30:29.644Z,-87
2023-02-23T19:33:41.181Z,-87
2023-02-23T19:36:47.218Z,-87
2023-02-23T19:39:54.145Z,-86
2023-02-23T19:43:00.649Z,-88
2023-02-23T19:46:08.248Z,-85
2023-02-23T19:49:16.709Z,-86
2023-02-23T19:52:24.899Z,-86
2023-02-23T19:55:31.155Z,-88
2023-02-23T19:58:38.957Z,-86
2023-02-23T20:01:45.988Z,-84
2023-02-23T20:04:55.297Z,-87
2023-02-23T20:08:01.266Z,-84
2023-02-23T20:11:09.860Z,-88
2023-02-23T20:14:15.731Z,-88
2023-02-23T20:17:23.888Z,-84
2023-02-23T20:20:32.296Z,-87
2023-02-23T20:23:39.016Z,-84
2023-02-23T20:26:45.432Z,-84
2023-02-23T20:29:53.892Z,-84
2023-02-23T20:33:00.557Z,-85
2023-02-23T20:36:12.264Z,-85
2023-02-23T20:39:19.271Z,-85
2023-02-23T20:42:28.542Z,-84
2023-02-23T20:45:34.695Z,-85
2023-02-23T20:48:41.391Z,-85
2023-02-23T20:51:51.987Z,-86
2023-02-23T20:54:59.374Z,-86
2023-02-23T20:58:06.033Z,-85
2023-02-23T21:01:19.343Z,-87
2023-02-23T21:04:26.822Z,-84
2023-02-23T21:07:36.106Z,-85
2023-02-23T21:10:43.362Z,-85
2023-02-23T21:13:50.347Z,-84
2023-02-23T21:16:56.098Z,-85
2023-02-23T21:20:02.662Z,-87
2023-02-23T21:23:11.203Z,-85
2023-02-23T21:26:21.814Z,-87
2023-02-23T21:29:28.136Z,-87
2023-02-23T21:32:41.452Z,-86
2023-02-23T21:35:47.400Z,-86
2023-02-23T21:38:56.750Z,-86
2023-02-23T21:42:04.346Z,-86
2023-02-23T21:45:14.085Z,-86
2023-02-23T21:48:22.767Z,-86
2023-02-23T21:51:30.695Z,-87
2023-02-23T21:54:39.764Z,-87
2023-02-23T21:57:47.996Z,-85
2023-02-23T22:00:53.837Z,-84
2023-02-23T22:04:01.464Z,-83
2023-02-23T22:07:08.295Z,-87
2023-02-23T22:10:17.838Z,-85
2023-02-23T22:13:23.570Z,-84
2023-02-23T22:16:33.446Z,-83
2023-02-23T22:19:39.155Z,-83
2023-02-23T22:22:45.783Z,-84
2023-02-23T22:25:54.132Z,-85
2023-02-23T22:29:00.794Z,-84
2023-02-23T22:32:06.720Z,-83
2023-02-23T22:35:14.709Z,-84
2023-02-23T22:38:21.996Z,-84
2023-02-23T22:41:32.076Z,-84
2023-02-23T22:44:41.541Z,-86
2023-02-23T22:47:48.337Z,-84
2023-02-23T22:50:54.665Z,-84
2023-02-23T22:54:01.269Z,-83
2023-02-23T22:57:09.914Z,-85
2023-02-23T23:00:21.364Z,-85
2023-02-23T23:03:27.632Z,-86
2023-02-23T23:06:34.476Z,-87
2023-02-23T23:09:40.266Z,-84
2023-02-23T23:12:49.670Z,-85
2023-02-23T23:16:07.474Z,-84
2023-02-23T23:19:16.233Z,-86
2023-02-23T23:22:22.092Z,-85
2023-02-23T23:25:29.702Z,-86
2023-02-23T23:28:40.732Z,-86
2023-02-23T23:31:48.078Z,-86
2023-02-23T23:34:57.492Z,-87
2023-02-23T23:38:06.289Z,-87
2023-02-23T23:41:14.309Z,-87
2023-02-23T23:44:29.435Z,-86
2023-02-23T23:47:35.487Z,-88
2023-02-23T23:50:42.484Z,-88
2023-02-23T23:53:48.253Z,-88
2023-02-23T23:56:55.295Z,-89
